createdAt,value
2023-03-21T00:01:12.305Z,57.90
2023-03-21T00:03:48.455Z,57.80
2023-03-21T00:06:24.567Z,57.60
2023-03-21T00:09:00.038Z,57.70
2023-03-21T00:11:35.169Z,57.50
2023-03-21T00:14:15.982Z,56.90
2023-03-21T00:16:54.673Z,57.70
2023-03-21T00:19:30.833Z,57.20
2023-03-21T00:22:08.542Z,56.90
2023-03-21T00:24:44.597Z,55.60
2023-03-21T00:27:44.869Z,56.50
2023-03-21T00:30:19.140Z,55.80
2023-03-21T00:33:03.572Z,56.10
2023-03-21T00:35:58.315Z,56.00
2023-03-21T00:38:34.640Z,55.90
2023-03-21T00:41:21.336Z,55.60
2023-03-21T00:44:02.452Z,55.30
2023-03-21T00:46:47.194Z,55.40
2023-03-21T00:49:29.442Z,55.40
2023-03-21T00:52:15.096Z,55.70
2023-03-21T00:54:51.316Z,55.40
2023-03-21T00:57:38.037Z,55.00
2023-03-21T01:00:17.578Z,55.00
2023-03-21T01:03:08.598Z,54.80
2023-03-21T01:06:10.643Z,54.80
2023-03-21T01:08:54.226Z,54.50
2023-03-21T01:11:31.576Z,55.40
2023-03-21T01:14:21.413Z,54.90
2023-03-21T01:16:58.316Z,55.60
2023-03-21T01:19:50.133Z,55.60
2023-03-21T01:22:29.196Z,55.10
2023-03-21T01:25:19.524Z,55.30
2023-03-21T01:27:57.534Z,55.30
2023-03-21T01:30:36.937Z,55.30
2023-03-21T01:33:17.306Z,56.10
2023-03-21T01:36:00.325Z,55.70
2023-03-21T01:38:43.553Z,55.90
2023-03-21T01:41:33.606Z,56.30
2023-03-21T01:44:24.524Z,56.90
2023-03-21T01:47:11.183Z,56.90
2023-03-21T01:50:08.310Z,57.00
2023-03-21T01:52:54.668Z,56.90
2023-03-21T01:55:39.322Z,57.20
2023-03-21T01:58:33.887Z,57.60
2023-03-21T02:01:17.650Z,57.30
2023-03-21T02:04:00.167Z,57.40
2023-03-21T02:06:41.662Z,57.50
2023-03-21T02:09:29.575Z,56.90
2023-03-21T02:12:06.994Z,57.20
2023-03-21T02:14:43.691Z,56.80
2023-03-21T02:17:33.470Z,56.70
2023-03-21T02:20:53.970Z,56.70
2023-03-21T02:24:02.665Z,56.40
2023-03-21T02:27:04.885Z,57.20
2023-03-21T02:30:26.535Z,56.40
2023-03-21T02:33:30.864Z,56.20
2023-03-21T02:36:27.489Z,55.70
2023-03-21T02:39:13.274Z,55.20
2023-03-21T02:41:55.081Z,56.10
2023-03-21T02:44:46.979Z,55.60
2023-03-21T02:47:30.338Z,56.00
2023-03-21T02:50:14.281Z,55.40
2023-03-21T02:52:52.121Z,54.90
2023-03-21T02:55:31.486Z,55.60
2023-03-21T02:58:14.564Z,55.70
2023-03-21T03:00:57.076Z,55.70
2023-03-21T03:03:41.261Z,56.00
2023-03-21T03:06:28.598Z,56.00
2023-03-21T03:09:25.024Z,56.20
2023-03-21T03:12:12.482Z,56.70
2023-03-21T03:15:03.458Z,56.70
2023-03-21T03:17:51.907Z,55.80
2023-03-21T03:20:38.243Z,56.20
2023-03-21T03:23:23.871Z,56.20
2023-03-21T03:26:04.659Z,56.30
2023-03-21T03:28:46.925Z,56.30
2023-03-21T03:31:30.537Z,56.50
2023-03-21T03:34:10.876Z,56.30
2023-03-21T03:36:53.260Z,56.20
2023-03-21T03:39:34.985Z,56.40
2023-03-21T03:42:27.106Z,56.20
2023-03-21T03:45:34.253Z,56.30
2023-03-21T03:48:19.181Z,56.10
2023-03-21T03:51:00.282Z,56.60
2023-03-21T03:54:00.444Z,56.40
2023-03-21T03:56:38.189Z,55.70
2023-03-21T03:59:13.776Z,56.30
2023-03-21T04:02:06.910Z,56.50
2023-03-21T04:04:43.465Z,56.00
2023-03-21T04:07:19.658Z,56.50
2023-03-21T04:09:56.395Z,56.50
2023-03-21T04:12:32.507Z,56.30
2023-03-21T04:15:33.907Z,56.30
2023-03-21T04:18:19.501Z,56.20
2023-03-21T04:20:55.012Z,56.40
2023-03-21T04:23:31.065Z,56.60
2023-03-21T04:26:07.402Z,56.50
2023-03-21T04:28:47.523Z,56.60
2023-03-21T04:31:43.332Z,56.60
2023-03-21T04:34:25.569Z,57.10
2023-03-21T04:37:12.655Z,57.00
2023-03-21T04:39:49.588Z,57.20
2023-03-21T04:42:24.770Z,57.40
2023-03-21T04:45:00.351Z,57.00
2023-03-21T04:47:36.463Z,57.30
2023-03-21T04:50:17.541Z,57.30
2023-03-21T04:52:52.788Z,57.20
2023-03-21T04:55:29.729Z,57.80
2023-03-21T04:58:05.575Z,57.60
2023-03-21T05:00:41.897Z,57.50
2023-03-21T05:03:21.646Z,57.80
2023-03-21T05:05:59.062Z,57.80
2023-03-21T05:08:35.138Z,58.10
2023-03-21T05:11:11.470Z,58.60
2023-03-21T05:13:47.168Z,59.00
2023-03-21T05:16:22.654Z,59.30
2023-03-21T05:18:59.041Z,58.90
2023-03-21T05:21:43.145Z,58.70
2023-03-21T05:24:26.616Z,58.80
2023-03-21T05:27:05.343Z,58.80
2023-03-21T05:29:48.858Z,58.60
2023-03-21T05:32:24.425Z,58.90
2023-03-21T05:34:59.834Z,59.00
2023-03-21T05:37:37.452Z,58.90
2023-03-21T05:40:16.454Z,58.80
2023-03-21T05:42:54.604Z,59.00
2023-03-21T05:45:31.399Z,58.90
2023-03-21T05:48:08.461Z,59.60
2023-03-21T05:50:58.855Z,59.30
2023-03-21T05:53:36.281Z,59.40
2023-03-21T05:56:12.635Z,59.60
2023-03-21T05:58:55.134Z,59.50
2023-03-21T06:01:32.603Z,59.50
2023-03-21T06:04:22.034Z,59.40
2023-03-21T06:06:57.423Z,60.40
2023-03-21T06:09:35.367Z,60.50
2023-03-21T06:12:12.770Z,60.60
2023-03-21T06:14:57.306Z,61.10
2023-03-21T06:17:42.082Z,60.90
2023-03-21T06:20:20.316Z,60.80
2023-03-21T06:23:00.897Z,60.90
2023-03-21T06:25:39.135Z,60.80
2023-03-21T06:28:15.284Z,61.00
2023-03-21T06:30:52.678Z,61.40
2023-03-21T06:33:32.384Z,61.30
2023-03-21T06:36:08.020Z,60.90
2023-03-21T06:38:43.358Z,61.20
2023-03-21T06:41:22.559Z,60.90
2023-03-21T06:44:08.960Z,61.20
2023-03-21T06:46:53.900Z,61.40
2023-03-21T06:49:30.184Z,61.50
2023-03-21T06:52:10.275Z,60.90
2023-03-21T06:54:46.783Z,61.00
2023-03-21T06:57:25.952Z,61.10
2023-03-21T07:00:01.175Z,61.00
2023-03-21T07:02:38.555Z,61.20
2023-03-21T07:05:19.826Z,61.10
2023-03-21T07:07:55.520Z,61.10
2023-03-21T07:10:34.286Z,61.00
2023-03-21T07:13:16.046Z,61.00
2023-03-21T07:16:03.481Z,63.70
2023-03-21T07:18:39.913Z,64.50
2023-03-21T07:21:15.258Z,65.10
2023-03-21T07:23:52.468Z,65.40
2023-03-21T07:26:28.216Z,65.10
2023-03-21T07:29:07.586Z,65.60
2023-03-21T07:31:43.433Z,65.50
2023-03-21T07:34:20.616Z,65.80
2023-03-21T07:36:56.444Z,65.40
2023-03-21T07:39:34.463Z,65.10
2023-03-21T07:44:54.406Z,63.80
2023-03-21T07:47:31.212Z,64.70
2023-03-21T07:50:07.753Z,64.80
2023-03-21T07:52:43.281Z,64.50
2023-03-21T07:55:19.535Z,64.50
2023-03-21T07:57:56.745Z,64.30
2023-03-21T08:00:34.531Z,64.50
2023-03-21T08:03:10.392Z,63.90
2023-03-21T08:05:47.267Z,64.40
2023-03-21T08:08:25.912Z,64.20
2023-03-21T08:11:01.735Z,64.20
2023-03-21T08:13:37.069Z,64.20
2023-03-21T08:16:15.873Z,64.20
2023-03-21T08:18:51.723Z,64.30
2023-03-21T08:21:27.875Z,64.10
2023-03-21T08:24:03.296Z,64.00
2023-03-21T08:26:39.862Z,64.10
2023-03-21T08:29:15.635Z,65.40
2023-03-21T08:31:53.134Z,66.10
2023-03-21T08:34:28.287Z,66.60
2023-03-21T08:37:05.927Z,66.60
2023-03-21T08:39:41.749Z,66.70
2023-03-21T08:42:17.359Z,66.70
2023-03-21T08:44:52.560Z,66.40
2023-03-21T08:47:30.049Z,66.00
2023-03-21T08:50:08.275Z,66.00
2023-03-21T08:52:44.361Z,66.30
2023-03-21T08:55:20.638Z,66.10
2023-03-21T08:57:56.572Z,65.80
2023-03-21T09:00:32.621Z,65.30
2023-03-21T09:03:11.666Z,65.20
2023-03-21T09:05:47.438Z,64.60
2023-03-21T09:08:24.968Z,65.40
2023-03-21T09:11:01.277Z,65.30
2023-03-21T09:13:36.656Z,65.00
2023-03-21T09:16:12.626Z,64.80
2023-03-21T09:18:52.153Z,65.00
2023-03-21T09:21:29.024Z,64.70
2023-03-21T09:24:04.716Z,64.50
2023-03-21T09:26:39.851Z,63.80
2023-03-21T09:29:15.723Z,63.70
2023-03-21T09:31:51.500Z,64.30
2023-03-21T09:34:28.930Z,64.30
2023-03-21T09:37:04.229Z,64.30
2023-03-21T09:39:40.831Z,64.30
2023-03-21T09:42:34.532Z,64.20
2023-03-21T09:45:17.781Z,64.20
2023-03-21T09:47:55.154Z,63.90
2023-03-21T09:50:35.468Z,64.80
2023-03-21T09:53:18.501Z,64.40
2023-03-21T09:55:56.026Z,64.40
2023-03-21T09:58:34.840Z,65.00
2023-03-21T10:01:23.724Z,65.00
2023-03-21T10:04:01.869Z,64.50
2023-03-21T10:06:42.849Z,64.50
2023-03-21T10:09:24.779Z,64.60
2023-03-21T10:12:05.291Z,65.50
2023-03-21T10:14:44.080Z,66.10
2023-03-21T10:17:31.318Z,66.50
2023-03-21T10:20:17.983Z,66.40
2023-03-21T10:22:57.648Z,66.70
2023-03-21T10:25:37.211Z,66.50
2023-03-21T10:28:18.876Z,66.50
2023-03-21T10:30:57.726Z,65.80
2023-03-21T10:33:38.186Z,65.70
2023-03-21T10:36:16.217Z,65.80
2023-03-21T10:38:57.114Z,67.20
2023-03-21T10:41:33.622Z,66.30
2023-03-21T10:44:16.176Z,66.50
2023-03-21T10:46:58.642Z,65.40
2023-03-21T10:49:56.365Z,65.70
2023-03-21T10:52:34.852Z,65.80
2023-03-21T10:55:23.043Z,65.90
2023-03-21T10:58:10.098Z,66.30
2023-03-21T11:00:47.609Z,66.10
2023-03-21T11:03:31.581Z,66.00
2023-03-21T11:06:11.109Z,65.90
2023-03-21T11:08:50.670Z,65.50
2023-03-21T11:11:31.642Z,66.10
2023-03-21T11:14:09.458Z,65.40
2023-03-21T11:16:46.883Z,65.10
2023-03-21T11:19:26.392Z,65.50
2023-03-21T11:22:03.815Z,65.60
2023-03-21T11:24:41.371Z,65.70
2023-03-21T11:27:18.855Z,65.00
2023-03-21T11:29:56.956Z,65.60
2023-03-21T11:32:37.872Z,65.00
2023-03-21T11:35:22.061Z,65.00
2023-03-21T11:37:59.088Z,65.00
2023-03-21T11:40:42.556Z,64.90
2023-03-21T11:43:35.720Z,65.30
2023-03-21T11:46:14.192Z,65.40
2023-03-21T11:48:54.433Z,65.80
2023-03-21T11:51:38.535Z,65.90
2023-03-21T11:54:31.829Z,66.30
2023-03-21T11:57:28.402Z,66.60
2023-03-21T12:00:22.438Z,66.30
2023-03-21T12:03:41.468Z,66.50
2023-03-21T12:06:32.903Z,66.30
2023-03-21T12:09:27.972Z,66.00
2023-03-21T12:12:14.040Z,66.10
2023-03-21T12:14:59.604Z,66.50
2023-03-21T12:17:46.426Z,66.50
2023-03-21T12:20:40.448Z,67.00
2023-03-21T12:23:48.866Z,67.20
2023-03-21T12:26:31.470Z,67.20
2023-03-21T12:29:21.244Z,67.70
2023-03-21T12:32:05.923Z,68.00
2023-03-21T12:35:13.786Z,68.40
2023-03-21T12:37:58.442Z,68.40
2023-03-21T12:40:49.106Z,68.30
2023-03-21T12:43:45.626Z,68.20
2023-03-21T12:46:28.057Z,68.60
2023-03-21T12:49:08.027Z,68.80
2023-03-21T12:51:48.956Z,68.40
2023-03-21T12:54:33.009Z,69.00
2023-03-21T12:57:13.244Z,68.90
2023-03-21T12:59:54.066Z,69.60
2023-03-21T13:02:34.637Z,71.20
2023-03-21T13:05:19.495Z,70.80
2023-03-21T13:08:02.509Z,71.30
2023-03-21T13:10:39.993Z,71.10
2023-03-21T13:13:24.155Z,71.20
2023-03-21T13:16:23.102Z,71.00
2023-03-21T13:19:07.273Z,71.00
2023-03-21T13:21:54.633Z,71.10
2023-03-21T13:24:38.114Z,71.30
2023-03-21T13:27:23.213Z,71.50
2023-03-21T13:30:02.681Z,71.20
2023-03-21T13:32:39.879Z,71.60
2023-03-21T13:35:22.593Z,71.70
2023-03-21T13:38:01.581Z,71.70
2023-03-21T13:40:46.080Z,71.90
2023-03-21T13:43:48.076Z,71.70
2023-03-21T13:46:53.858Z,72.20
2023-03-21T13:49:36.186Z,71.90
2023-03-21T13:52:30.985Z,72.00
2023-03-21T13:55:21.115Z,72.20
2023-03-21T13:57:59.221Z,72.00
2023-03-21T14:00:36.852Z,72.60
2023-03-21T14:03:14.519Z,72.80
2023-03-21T14:05:55.822Z,73.00
2023-03-21T14:08:37.457Z,73.00
2023-03-21T14:11:18.399Z,73.10
2023-03-21T14:13:57.981Z,73.30
2023-03-21T14:16:35.176Z,73.10
2023-03-21T14:19:11.832Z,73.20
2023-03-21T14:21:55.664Z,73.10
2023-03-21T14:24:30.842Z,73.20
2023-03-21T14:27:07.731Z,73.30
2023-03-21T14:29:45.367Z,73.50
2023-03-21T14:32:27.648Z,73.40
2023-03-21T14:35:05.938Z,73.30
2023-03-21T14:37:52.056Z,73.40
2023-03-21T14:40:29.592Z,73.10
2023-03-21T14:43:10.557Z,73.30
2023-03-21T14:45:51.484Z,73.10
2023-03-21T14:48:33.174Z,73.20
2023-03-21T14:51:11.951Z,72.90
2023-03-21T14:53:49.295Z,73.30
2023-03-21T14:56:28.697Z,73.50
2023-03-21T14:59:05.241Z,73.30
2023-03-21T15:01:44.002Z,73.10
2023-03-21T15:04:21.309Z,73.00
2023-03-21T15:07:00.690Z,73.10
2023-03-21T15:09:37.566Z,72.80
2023-03-21T15:12:15.709Z,72.90
2023-03-21T15:14:51.910Z,73.00
2023-03-21T15:17:30.919Z,73.20
2023-03-21T15:20:07.466Z,73.10
2023-03-21T15:22:45.718Z,72.90
2023-03-21T15:25:26.235Z,73.10
2023-03-21T15:28:01.725Z,72.70
2023-03-21T15:30:39.019Z,73.60
2023-03-21T15:33:17.276Z,73.10
2023-03-21T15:35:57.642Z,72.70
2023-03-21T15:38:38.179Z,73.40
2023-03-21T15:41:33.068Z,73.50
2023-03-21T15:44:17.533Z,73.90
2023-03-21T15:46:53.964Z,74.10
2023-03-21T15:49:35.021Z,74.30
2023-03-21T15:52:16.426Z,74.60
2023-03-21T15:54:57.407Z,74.90
2023-03-21T15:57:34.650Z,75.00
2023-03-21T16:00:26.317Z,75.20
2023-03-21T16:03:08.058Z,75.50
2023-03-21T16:05:45.321Z,75.50
2023-03-21T16:08:26.167Z,75.90
2023-03-21T16:11:12.776Z,75.30
2023-03-21T16:13:48.565Z,75.20
2023-03-21T16:16:26.266Z,75.40
2023-03-21T16:19:02.920Z,75.20
2023-03-21T16:21:41.386Z,75.30
2023-03-21T16:24:18.273Z,75.20
2023-03-21T16:26:55.720Z,75.40
2023-03-21T16:29:31.378Z,75.30
2023-03-21T16:32:07.828Z,75.20
2023-03-21T16:34:43.817Z,74.90
2023-03-21T16:37:21.491Z,74.60
2023-03-21T16:39:58.544Z,74.60
2023-03-21T16:42:34.323Z,74.60
2023-03-21T16:45:10.299Z,74.80
2023-03-21T16:47:46.434Z,74.90
2023-03-21T16:50:30.643Z,74.60
2023-03-21T16:53:08.408Z,74.70
2023-03-21T16:55:45.012Z,74.70
2023-03-21T16:58:21.386Z,74.40
2023-03-21T17:00:58.177Z,73.90
2023-03-21T17:03:33.982Z,73.80
2023-03-21T17:06:10.211Z,73.20
2023-03-21T17:08:47.775Z,73.60
2023-03-21T17:11:25.357Z,74.20
2023-03-21T17:14:00.960Z,74.20
2023-03-21T17:16:36.724Z,74.10
2023-03-21T17:19:20.451Z,74.30
2023-03-21T17:21:56.992Z,74.10
2023-03-21T17:24:34.459Z,74.40
2023-03-21T17:27:13.233Z,74.00
2023-03-21T17:29:48.686Z,73.50
2023-03-21T17:32:24.318Z,73.90
2023-03-21T17:34:59.620Z,74.00
2023-03-21T17:37:35.941Z,74.00
2023-03-21T17:40:17.040Z,74.10
2023-03-21T17:42:53.268Z,74.20
2023-03-21T17:45:28.853Z,74.30
2023-03-21T17:48:04.608Z,74.50
2023-03-21T17:50:41.070Z,74.50
2023-03-21T17:53:16.850Z,74.70
2023-03-21T17:55:54.694Z,74.40
2023-03-21T17:58:30.830Z,74.30
2023-03-21T18:01:06.352Z,74.70
2023-03-21T18:03:42.154Z,74.60
2023-03-21T18:06:21.454Z,74.50
2023-03-21T18:09:00.985Z,74.10
2023-03-21T18:11:38.516Z,74.30
2023-03-21T18:14:18.066Z,74.30
2023-03-21T18:16:55.834Z,74.50
2023-03-21T18:19:31.483Z,74.50
2023-03-21T18:22:06.789Z,74.50
2023-03-21T18:24:42.174Z,74.70
2023-03-21T18:27:19.461Z,74.50
2023-03-21T18:32:51.865Z,74.60
2023-03-21T18:35:27.637Z,74.70
2023-03-21T18:38:04.448Z,74.60
2023-03-21T18:40:40.408Z,74.60
2023-03-21T18:43:59.330Z,74.80
2023-03-21T18:46:14.445Z,74.60
2023-03-21T18:48:51.133Z,74.60
2023-03-21T18:51:27.411Z,74.40
2023-03-21T18:54:03.414Z,74.60
2023-03-21T18:59:37.915Z,74.80
2023-03-21T19:02:17.021Z,74.80
2023-03-21T19:04:52.766Z,75.00
2023-03-21T19:07:28.932Z,74.90
2023-03-21T19:10:17.464Z,74.80
2023-03-21T19:12:54.826Z,74.70
2023-03-21T19:15:32.379Z,74.70
2023-03-21T19:18:37.585Z,74.90
2023-03-21T19:21:04.565Z,74.90
2023-03-21T19:24:16.293Z,74.70
2023-03-21T19:26:35.497Z,74.80
2023-03-21T19:29:10.810Z,74.80
2023-03-21T19:31:48.875Z,75.00
2023-03-21T19:34:25.275Z,75.20
2023-03-21T19:37:00.771Z,75.40
2023-03-21T19:39:38.084Z,75.20
2023-03-21T19:42:17.144Z,75.20
2023-03-21T19:44:53.381Z,75.00
2023-03-21T19:47:31.282Z,75.20
2023-03-21T19:53:02.589Z,75.10
2023-03-21T19:55:38.293Z,75.00
2023-03-21T19:58:14.223Z,74.90
2023-03-21T20:00:49.809Z,74.80
2023-03-21T20:03:27.947Z,74.80
2023-03-21T20:06:11.520Z,74.80
2023-03-21T20:11:42.436Z,74.90
2023-03-21T20:14:17.897Z,74.90
2023-03-21T20:16:55.329Z,75.10
2023-03-21T20:19:33.632Z,75.30
2023-03-21T20:22:21.757Z,74.90
2023-03-21T20:25:06.734Z,74.90
2023-03-21T20:27:43.675Z,74.70
2023-03-21T20:30:21.166Z,74.90
2023-03-21T20:32:56.518Z,74.50
2023-03-21T20:36:22.999Z,74.50
2023-03-21T20:38:32.656Z,74.60
2023-03-21T20:41:09.182Z,74.70
2023-03-21T20:44:34.756Z,74.70
2023-03-21T20:46:40.717Z,74.60
2023-03-21T20:49:17.097Z,74.60
2023-03-21T20:54:51.782Z,74.80
2023-03-21T20:57:28.740Z,74.90
2023-03-21T21:00:05.460Z,74.90
2023-03-21T21:02:40.942Z,74.70
2023-03-21T21:05:26.004Z,74.60
2023-03-21T21:08:07.310Z,74.30
2023-03-21T21:11:14.944Z,74.20
2023-03-21T21:13:38.901Z,73.80
2023-03-21T21:16:14.592Z,73.60
2023-03-21T21:18:50.670Z,73.40
2023-03-21T21:21:27.017Z,73.10
2023-03-21T21:24:04.666Z,73.20
2023-03-21T21:26:41.929Z,73.20
2023-03-21T21:29:18.594Z,72.70
2023-03-21T21:31:54.877Z,72.70
2023-03-21T21:34:30.346Z,72.70
2023-03-21T21:37:06.092Z,71.40
2023-03-21T21:39:43.913Z,71.20
2023-03-21T21:42:19.531Z,71.70
2023-03-21T21:44:54.870Z,71.50
2023-03-21T21:47:30.596Z,71.20
2023-03-21T21:50:09.628Z,69.90
2023-03-21T21:52:54.442Z,70.30
2023-03-21T21:55:32.430Z,70.40
2023-03-21T21:58:10.114Z,70.60
2023-03-21T22:00:46.783Z,69.90
2023-03-21T22:03:23.661Z,68.10
2023-03-21T22:06:06.464Z,69.10
2023-03-21T22:08:48.815Z,68.20
2023-03-21T22:11:26.516Z,67.90
2023-03-21T22:14:02.068Z,66.80
2023-03-21T22:16:37.396Z,66.90
2023-03-21T22:19:12.692Z,66.20
2023-03-21T22:21:48.472Z,65.40
2023-03-21T22:24:24.523Z,65.40
2023-03-21T22:27:01.907Z,65.30
2023-03-21T22:29:37.211Z,65.60
2023-03-21T22:32:13.356Z,65.20
2023-03-21T22:34:48.988Z,66.20
2023-03-21T22:37:24.379Z,66.60
2023-03-21T22:40:00.331Z,66.50
2023-03-21T22:42:38.126Z,66.70
2023-03-21T22:45:15.346Z,65.70
2023-03-21T22:47:50.852Z,65.40
2023-03-21T22:50:26.126Z,65.90
2023-03-21T22:53:01.871Z,65.20
2023-03-21T22:55:38.241Z,65.70
2023-03-21T22:58:15.427Z,65.70
2023-03-21T23:00:51.000Z,65.60
2023-03-21T23:03:27.012Z,65.40
2023-03-21T23:06:05.526Z,65.40
2023-03-21T23:08:40.977Z,65.70
2023-03-21T23:11:16.900Z,66.00
2023-03-21T23:14:06.795Z,65.70
2023-03-21T23:16:43.273Z,65.40
2023-03-21T23:19:18.678Z,65.50
2023-03-21T23:21:53.764Z,65.60
2023-03-21T23:24:29.425Z,65.90
2023-03-21T23:27:05.657Z,66.30
2023-03-21T23:29:42.986Z,66.00
2023-03-21T23:32:18.063Z,64.60
2023-03-21T23:34:53.728Z,64.60
2023-03-21T23:37:31.771Z,64.40
2023-03-21T23:40:08.081Z,63.80
2023-03-21T23:42:43.848Z,64.20
2023-03-21T23:45:21.666Z,63.80
2023-03-21T23:47:57.233Z,63.70
2023-03-21T23:50:32.557Z,64.00
2023-03-21T23:53:07.892Z,64.10
2023-03-21T23:55:46.294Z,64.30
2023-03-21T23:58:22.501Z,64.20
